Time;durP1;ratioP1;P1;durP2;ratioP2;P2;SDS_P1;SDS_P2;PMS_P1;PMS_P2;Temp;Humidity;BMP_temperature;BMP_pressure;BME280_temperature;BME280_humidity;BME280_pressure;Samples;Min_cycle;Max_cycle;Signal;HPM_P1;HPM_P2
2021/12/16 00:04:40;;;;;;;510.60;484.27;;;8.30;99.90;;;;;;4397770;32;20593;-69
2021/12/16 00:09:48;;;;;;;500.77;475.43;;;8.40;99.90;;;;;;4373820;32;20604;-67
2021/12/16 00:31:52;;;;;;;496.80;472.00;;;8.50;99.90;;;;;;4354897;32;20175;-67
2021/12/16 00:34:22;;;;;;;496.27;471.03;;;8.50;99.90;;;;;;4361739;32;20172;-67
2021/12/16 00:36:51;;;;;;;507.97;481.97;;;8.50;99.90;;;;;;4367496;32;20203;-67
2021/12/16 00:39:20;;;;;;;530.80;503.57;;;8.50;99.90;;;;;;4368610;32;20181;-65
2021/12/16 00:41:51;;;;;;;516.23;489.87;;;8.60;99.90;;;;;;4372546;32;20178;-68
2021/12/16 00:44:36;;;;;;;496.43;471.40;;;8.60;99.90;;;;;;4372970;32;20189;-67
2021/12/16 00:47:25;;;;;;;507.73;481.67;;;8.60;99.90;;;;;;4389178;32;20580;-66
2021/12/16 00:49:53;;;;;;;493.43;468.40;;;8.60;99.90;;;;;;4404364;32;20253;-66
2021/12/16 00:55:20;;;;;;;488.17;463.17;;;8.60;99.90;;;;;;4400715;32;20163;-66
2021/12/16 00:57:49;;;;;;;491.30;465.70;;;8.60;99.90;;;;;;4420130;32;20232;-67
2021/12/16 01:00:17;;;;;;;493.93;467.63;;;8.60;99.90;;;;;;4415079;32;20163;-67
2021/12/16 01:02:57;;;;;;;506.97;479.50;;;8.50;99.90;;;;;;4417301;32;20168;-67
2021/12/16 01:33:46;;;;;;;509.90;483.53;;;8.60;99.90;;;;;;4339215;33;20161;-66
2021/12/16 01:36:28;;;;;;;495.33;469.37;;;8.50;99.90;;;;;;4345322;33;20163;-67
2021/12/16 01:39:39;;;;;;;492.40;466.77;;;8.50;99.90;;;;;;4344621;33;20684;-66
2021/12/16 01:50:26;;;;;;;490.70;465.97;;;8.60;99.90;;;;;;4356023;32;20500;-66
2021/12/16 01:55:44;;;;;;;495.77;470.60;;;8.50;99.90;;;;;;4392171;32;20743;-66
2021/12/16 01:58:16;;;;;;;498.37;472.97;;;8.40;99.90;;;;;;4394340;32;20491;-67
2021/12/16 02:00:56;;;;;;;489.43;464.73;;;8.40;99.90;;;;;;4393341;32;20174;-66
2021/12/16 02:03:37;;;;;;;490.67;465.87;;;8.40;99.90;;;;;;4392211;32;20150;-68
2021/12/16 02:06:11;;;;;;;477.20;453.13;;;8.50;99.90;;;;;;4393571;32;20150;-67
2021/12/16 02:08:40;;;;;;;488.43;463.20;;;8.50;99.90;;;;;;4394738;32;20210;-67
2021/12/16 02:11:22;;;;;;;498.37;473.27;;;8.60;99.90;;;;;;4396648;32;20163;-65
2021/12/16 02:27:48;;;;;;;475.67;451.73;;;8.50;99.90;;;;;;4394466;32;20249;-70
2021/12/16 02:33:21;;;;;;;475.50;452.10;;;8.40;99.90;;;;;;4396476;32;20151;-70
2021/12/16 02:36:00;;;;;;;463.63;440.93;;;8.40;99.90;;;;;;4400266;32;20740;-67
2021/12/16 02:38:32;;;;;;;460.77;437.83;;;8.40;99.90;;;;;;4393546;32;20606;-66
2021/12/16 02:40:59;;;;;;;469.50;446.20;;;8.30;99.90;;;;;;4391390;32;20183;-67
2021/12/16 02:43:55;;;;;;;466.27;442.77;;;8.30;99.90;;;;;;4394064;32;20163;-67
2021/12/16 02:49:07;;;;;;;464.10;441.93;;;8.20;99.90;;;;;;4401512;32;20194;-66
2021/12/16 02:51:34;;;;;;;471.67;448.87;;;8.10;99.90;;;;;;4390529;32;20182;-66
2021/12/16 02:54:06;;;;;;;447.63;425.97;;;8.00;99.90;;;;;;4393463;32;20178;-66
2021/12/16 02:56:34;;;;;;;478.57;455.57;;;7.90;99.90;;;;;;4394064;32;20166;-67
2021/12/16 02:59:01;;;;;;;458.43;436.23;;;7.70;99.90;;;;;;4405622;32;20163;-67
2021/12/16 03:01:36;;;;;;;441.57;420.57;;;7.60;99.90;;;;;;4395349;32;20155;-67
2021/12/16 03:04:05;;;;;;;444.60;422.63;;;7.50;99.90;;;;;;4396480;32;20148;-66
2021/12/16 03:06:33;;;;;;;469.77;446.97;;;7.40;99.90;;;;;;4402355;32;20169;-69
2021/12/16 03:09:05;;;;;;;452.30;430.43;;;7.40;99.90;;;;;;4396820;32;20645;-67
2021/12/16 03:11:41;;;;;;;466.53;443.73;;;7.30;99.90;;;;;;4394707;32;20140;-67
2021/12/16 03:14:26;;;;;;;454.60;432.70;;;7.30;99.90;;;;;;4394047;32;20595;-68
2021/12/16 03:17:08;;;;;;;468.50;446.03;;;7.20;99.90;;;;;;4396334;32;20182;-66
2021/12/16 03:19:46;;;;;;;467.37;445.00;;;7.20;99.90;;;;;;4397669;32;20596;-66
2021/12/16 03:22:26;;;;;;;465.67;443.10;;;7.20;99.90;;;;;;4398850;32;20144;-69
2021/12/16 03:33:29;;;;;;;484.13;459.90;;;7.30;99.90;;;;;;4395039;32;20168;-67
2021/12/16 03:36:06;;;;;;;491.27;467.27;;;7.20;99.90;;;;;;4396353;32;20140;-65
2021/12/16 03:38:36;;;;;;;525.70;498.93;;;7.30;99.90;;;;;;4392479;32;20167;-68
2021/12/16 03:41:06;;;;;;;546.83;518.83;;;7.30;99.90;;;;;;4401865;32;20174;-66
2021/12/16 03:43:35;;;;;;;548.77;519.57;;;7.40;99.90;;;;;;4397356;32;20170;-66
2021/12/16 03:48:55;;;;;;;559.57;529.07;;;7.50;99.90;;;;;;4404821;32;20154;-69
2021/12/16 03:51:27;;;;;;;550.70;521.60;;;7.60;99.90;;;;;;4397258;32;20153;-68
2021/12/16 03:53:56;;;;;;;562.13;532.50;;;7.60;99.90;;;;;;4399144;32;20493;-70
2021/12/16 03:56:25;;;;;;;529.47;501.73;;;7.60;99.90;;;;;;4396129;32;20467;-68
2021/12/16 03:58:53;;;;;;;538.13;509.13;;;7.70;99.90;;;;;;4396363;32;20666;-67
2021/12/16 04:01:23;;;;;;;540.87;512.77;;;7.70;99.90;;;;;;4397299;32;20221;-68
2021/12/16 04:03:51;;;;;;;553.47;525.00;;;7.70;99.90;;;;;;4398106;32;20178;-67
2021/12/16 04:06:22;;;;;;;531.40;504.33;;;7.80;99.90;;;;;;4398890;32;20160;-68
2021/12/16 04:08:52;;;;;;;535.17;508.13;;;7.80;99.90;;;;;;4401076;32;20214;-70
2021/12/16 04:11:25;;;;;;;547.27;519.53;;;7.80;99.90;;;;;;4401712;32;20240;-68
2021/12/16 04:13:57;;;;;;;540.23;512.13;;;7.80;99.90;;;;;;4399658;32;20140;-70
2021/12/16 04:16:27;;;;;;;534.57;507.40;;;7.70;99.90;;;;;;4395263;32;20185;-68
2021/12/16 04:18:55;;;;;;;521.23;494.83;;;7.80;99.90;;;;;;4401419;32;20171;-68
2021/12/16 04:21:26;;;;;;;523.03;496.77;;;7.80;99.90;;;;;;4407815;32;20180;-68
2021/12/16 04:23:55;;;;;;;517.00;490.80;;;7.80;99.90;;;;;;4400080;32;20298;-67
2021/12/16 04:26:23;;;;;;;531.60;504.73;;;7.90;99.90;;;;;;4405943;32;20160;-67
2021/12/16 04:28:50;;;;;;;532.27;505.73;;;7.80;99.90;;;;;;4407984;32;20209;-68
2021/12/16 04:31:19;;;;;;;536.00;508.87;;;7.80;99.90;;;;;;4406401;32;20493;-67
2021/12/16 04:33:46;;;;;;;543.43;516.10;;;7.80;99.90;;;;;;4409424;32;20186;-69
2021/12/16 04:36:14;;;;;;;538.33;511.73;;;7.80;99.90;;;;;;4402071;32;20577;-69
2021/12/16 04:38:43;;;;;;;535.17;509.03;;;7.80;99.90;;;;;;4410358;32;20144;-68
2021/12/16 04:41:11;;;;;;;559.60;531.67;;;7.80;99.90;;;;;;4413694;32;20213;-69
2021/12/16 04:43:40;;;;;;;551.30;523.23;;;7.80;99.90;;;;;;4410987;32;20140;-68
2021/12/16 04:46:09;;;;;;;536.77;509.73;;;7.80;99.90;;;;;;4407580;32;20141;-67
2021/12/16 04:48:39;;;;;;;543.27;516.47;;;7.80;99.90;;;;;;4408844;32;20148;-68
2021/12/16 04:51:06;;;;;;;551.63;524.20;;;7.80;99.90;;;;;;4413332;32;20599;-70
2021/12/16 04:53:33;;;;;;;549.63;522.13;;;7.70;99.90;;;;;;4412741;32;20149;-70
2021/12/16 04:56:01;;;;;;;537.40;510.80;;;7.70;99.90;;;;;;4403952;32;20149;-67
2021/12/16 04:58:28;;;;;;;549.57;522.17;;;7.70;99.90;;;;;;4407837;32;20595;-69
2021/12/16 05:00:57;;;;;;;534.63;508.27;;;7.70;99.90;;;;;;4412711;32;20158;-67
2021/12/16 05:03:25;;;;;;;532.43;506.07;;;7.70;99.90;;;;;;4410434;32;20160;-66
2021/12/16 05:05:55;;;;;;;524.53;498.80;;;7.70;99.90;;;;;;4397951;32;20137;-66
2021/12/16 05:08:22;;;;;;;522.67;497.00;;;7.70;99.90;;;;;;4410027;32;20167;-68
2021/12/16 05:10:52;;;;;;;526.47;500.70;;;7.60;99.90;;;;;;4413506;32;20500;-68
2021/12/16 05:13:23;;;;;;;539.17;513.17;;;7.60;99.90;;;;;;4414695;32;20191;-67
2021/12/16 05:15:51;;;;;;;536.87;510.80;;;7.60;99.90;;;;;;4405517;32;20154;-68
2021/12/16 05:18:23;;;;;;;536.30;510.13;;;7.60;99.90;;;;;;4401834;32;20473;-68
2021/12/16 05:20:50;;;;;;;534.70;508.80;;;7.50;99.90;;;;;;4414531;32;20201;-65
2021/12/16 05:26:21;;;;;;;541.17;514.70;;;7.40;99.90;;;;;;4392191;32;20165;-66
2021/12/16 05:28:52;;;;;;;529.63;504.00;;;7.40;99.90;;;;;;4389719;32;20164;-66
2021/12/16 05:31:21;;;;;;;527.07;501.60;;;7.30;99.90;;;;;;4391235;32;20206;-69
2021/12/16 05:33:51;;;;;;;526.43;500.80;;;7.30;99.90;;;;;;4389355;32;20168;-69
2021/12/16 05:36:18;;;;;;;521.20;496.23;;;7.30;99.90;;;;;;4391556;32;20148;-69
2021/12/16 05:38:46;;;;;;;526.90;501.33;;;7.30;99.90;;;;;;4391959;32;20533;-67
2021/12/16 05:41:15;;;;;;;510.20;485.40;;;7.20;99.90;;;;;;4382659;32;20154;-68
2021/12/16 05:43:43;;;;;;;524.93;499.50;;;7.20;99.90;;;;;;4380960;32;20560;-67
2021/12/16 05:46:11;;;;;;;548.77;521.77;;;7.20;99.90;;;;;;4383071;32;20251;-67
2021/12/16 05:48:40;;;;;;;526.77;501.60;;;7.20;99.90;;;;;;4391362;32;20153;-66
2021/12/16 05:51:10;;;;;;;526.13;500.97;;;7.20;99.90;;;;;;4387209;32;20227;-68
2021/12/16 05:53:38;;;;;;;550.07;523.50;;;7.20;99.90;;;;;;4385515;32;20191;-66
2021/12/16 05:56:07;;;;;;;532.43;506.73;;;7.10;99.90;;;;;;4392695;32;20167;-68
2021/12/16 05:58:36;;;;;;;529.23;503.90;;;7.10;99.90;;;;;;4391972;32;20609;-69
2021/12/16 06:01:07;;;;;;;543.63;517.70;;;7.10;99.90;;;;;;4390761;32;20149;-66
2021/12/16 06:03:35;;;;;;;515.90;491.13;;;7.10;99.90;;;;;;4376895;32;20140;-69
2021/12/16 06:06:02;;;;;;;501.33;477.47;;;7.00;99.90;;;;;;4376806;32;20561;-68
2021/12/16 06:08:38;;;;;;;495.40;472.27;;;6.90;99.90;;;;;;4378833;32;20237;-67
2021/12/16 06:11:20;;;;;;;507.80;483.87;;;6.90;99.90;;;;;;4390838;32;20223;-68
2021/12/16 06:14:09;;;;;;;511.80;487.80;;;6.90;99.90;;;;;;4390348;32;20561;-68
2021/12/16 06:27:54;;;;;;;489.77;466.90;;;6.50;99.90;;;;;;4401454;32;20682;-67
2021/12/16 06:30:32;;;;;;;513.80;489.63;;;6.50;99.90;;;;;;4405919;32;20136;-67
2021/12/16 06:33:04;;;;;;;505.17;481.53;;;6.50;99.90;;;;;;4405173;32;20219;-67
2021/12/16 06:35:32;;;;;;;498.50;474.93;;;6.50;99.90;;;;;;4400809;32;20182;-66
2021/12/16 06:38:11;;;;;;;486.17;463.70;;;6.50;99.90;;;;;;4405580;32;20175;-69
2021/12/16 06:40:38;;;;;;;490.03;467.20;;;6.40;99.90;;;;;;4402655;32;20155;-66
2021/12/16 06:43:10;;;;;;;515.63;491.17;;;6.40;99.90;;;;;;4405788;32;20179;-66
2021/12/16 06:45:55;;;;;;;492.50;469.60;;;6.40;99.90;;;;;;4406230;32;20140;-65
2021/12/16 06:48:27;;;;;;;471.57;449.97;;;6.30;99.90;;;;;;4400061;32;20217;-65
2021/12/16 06:51:00;;;;;;;487.23;464.67;;;6.30;99.90;;;;;;4405604;32;20577;-66
2021/12/16 06:53:32;;;;;;;498.40;475.33;;;6.30;99.90;;;;;;4404831;32;20156;-67
2021/12/16 06:56:09;;;;;;;484.80;461.87;;;6.30;99.90;;;;;;4405038;32;20156;-65
2021/12/16 06:58:43;;;;;;;482.87;460.47;;;6.30;99.90;;;;;;4404362;32;20250;-67
2021/12/16 07:01:19;;;;;;;484.53;461.97;;;6.30;99.90;;;;;;4403636;32;20186;-66
2021/12/16 07:03:48;;;;;;;488.60;465.50;;;6.30;99.90;;;;;;4404359;32;20369;-67
2021/12/16 07:06:18;;;;;;;508.10;484.47;;;6.20;99.90;;;;;;4404867;32;20295;-67
2021/12/16 07:08:46;;;;;;;507.57;483.67;;;6.20;99.90;;;;;;4405328;32;20223;-66
2021/12/16 07:11:16;;;;;;;497.23;474.07;;;6.20;99.90;;;;;;4405123;32;20166;-66
2021/12/16 07:13:55;;;;;;;481.37;459.10;;;6.10;99.90;;;;;;4401983;32;20245;-66
2021/12/16 07:16:23;;;;;;;480.33;458.57;;;6.10;99.90;;;;;;4399569;32;20148;-66
2021/12/16 07:18:50;;;;;;;467.53;446.17;;;6.00;99.90;;;;;;4397953;32;20489;-65
2021/12/16 07:21:17;;;;;;;499.33;476.13;;;6.00;99.90;;;;;;4396641;32;20159;-67
2021/12/16 07:23:44;;;;;;;481.03;458.77;;;6.10;99.90;;;;;;4404136;32;20500;-64
2021/12/16 07:26:10;;;;;;;469.03;447.77;;;6.00;99.90;;;;;;4401370;32;20203;-67
2021/12/16 07:28:40;;;;;;;506.67;483.03;;;6.00;99.90;;;;;;4403148;32;20285;-66
2021/12/16 07:31:09;;;;;;;499.93;476.80;;;5.90;99.90;;;;;;4399244;32;20391;-65
2021/12/16 07:33:36;;;;;;;500.97;477.60;;;5.90;99.90;;;;;;4402684;32;20554;-66
2021/12/16 07:36:03;;;;;;;486.27;463.93;;;5.90;99.90;;;;;;4403956;32;20148;-66
2021/12/16 07:38:30;;;;;;;489.87;467.23;;;5.90;99.90;;;;;;4402635;32;20179;-66
2021/12/16 07:40:58;;;;;;;463.30;442.03;;;5.90;99.90;;;;;;4397776;32;20185;-68
2021/12/16 07:43:40;;;;;;;476.17;454.10;;;5.90;99.90;;;;;;4400242;32;20241;-68
2021/12/16 07:46:10;;;;;;;474.03;452.40;;;5.80;99.90;;;;;;4404041;32;20144;-68
2021/12/16 07:48:37;;;;;;;478.47;456.47;;;5.80;99.90;;;;;;4402893;32;20536;-65
2021/12/16 07:51:07;;;;;;;472.73;450.70;;;5.80;99.90;;;;;;4400422;32;20159;-65
2021/12/16 07:53:34;;;;;;;481.60;459.33;;;5.80;99.90;;;;;;4403331;32;20227;-67
2021/12/16 07:56:01;;;;;;;501.33;477.93;;;5.80;99.90;;;;;;4405073;32;20176;-69
2021/12/16 07:58:28;;;;;;;498.97;475.77;;;5.70;99.90;;;;;;4403216;32;20183;-69
2021/12/16 08:00:55;;;;;;;484.67;462.23;;;5.80;99.90;;;;;;4404954;32;20166;-66
2021/12/16 08:03:25;;;;;;;486.37;463.70;;;5.80;99.90;;;;;;4400754;32;20151;-68
2021/12/16 08:05:55;;;;;;;471.10;449.13;;;5.70;99.90;;;;;;4401165;32;20147;-67
2021/12/16 08:08:23;;;;;;;493.67;470.57;;;5.80;99.90;;;;;;4403799;32;20160;-69
2021/12/16 08:10:51;;;;;;;521.53;497.13;;;5.80;99.90;;;;;;4402652;32;20151;-69
2021/12/16 08:13:18;;;;;;;502.67;479.20;;;5.80;99.90;;;;;;4398888;32;20143;-65
2021/12/16 08:15:45;;;;;;;497.60;473.83;;;5.80;99.90;;;;;;4402044;32;20179;-68
2021/12/16 08:18:12;;;;;;;512.00;487.53;;;5.90;99.90;;;;;;4391956;32;20152;-64
2021/12/16 08:20:41;;;;;;;485.63;462.73;;;5.80;99.90;;;;;;4390333;32;20163;-67
2021/12/16 08:23:09;;;;;;;477.33;454.77;;;5.80;99.90;;;;;;4391048;32;20160;-66
2021/12/16 08:25:37;;;;;;;499.30;475.87;;;5.80;99.90;;;;;;4390095;32;20148;-68
2021/12/16 08:28:05;;;;;;;490.43;467.03;;;5.80;99.90;;;;;;4391927;32;20144;-65
2021/12/16 08:30:39;;;;;;;483.17;460.43;;;5.80;99.90;;;;;;4390218;32;20174;-65
2021/12/16 08:33:09;;;;;;;470.70;448.67;;;5.80;99.90;;;;;;4391302;32;20148;-65
2021/12/16 08:35:37;;;;;;;480.67;458.47;;;5.80;99.90;;;;;;4390231;32;20151;-64
2021/12/16 08:38:05;;;;;;;495.07;471.63;;;5.90;99.90;;;;;;4390079;32;20140;-64
2021/12/16 08:40:32;;;;;;;480.73;458.33;;;5.90;99.90;;;;;;4391154;32;20140;-66
2021/12/16 08:43:00;;;;;;;475.37;453.27;;;6.00;99.90;;;;;;4391638;32;20144;-64
2021/12/16 08:45:29;;;;;;;499.00;475.50;;;6.10;99.90;;;;;;4391453;32;20531;-65
2021/12/16 08:47:58;;;;;;;494.87;471.37;;;6.00;99.90;;;;;;4390237;32;20497;-68
2021/12/16 08:50:29;;;;;;;616.63;584.67;;;6.10;99.90;;;;;;4391612;32;20211;-67
2021/12/16 08:52:58;;;;;;;520.73;493.23;;;6.10;99.90;;;;;;4392908;32;20140;-65
2021/12/16 08:55:27;;;;;;;512.17;484.87;;;6.20;99.90;;;;;;4392684;32;20149;-65
2021/12/16 08:57:56;;;;;;;512.93;488.47;;;6.20;99.90;;;;;;4392790;32;20141;-68
2021/12/16 09:00:27;;;;;;;513.70;489.07;;;6.20;99.90;;;;;;4392839;32;20560;-65
2021/12/16 09:02:54;;;;;;;523.07;498.03;;;6.10;99.90;;;;;;4392759;32;20157;-68
2021/12/16 09:05:22;;;;;;;523.17;497.93;;;6.20;99.90;;;;;;4392735;32;20198;-66
2021/12/16 09:07:50;;;;;;;523.17;497.87;;;6.20;99.90;;;;;;4392722;32;20144;-65
2021/12/16 09:10:22;;;;;;;533.10;507.17;;;6.30;99.90;;;;;;4392631;32;20147;-64
2021/12/16 09:13:00;;;;;;;521.93;497.00;;;6.40;99.90;;;;;;4392650;32;20468;-66
2021/12/16 09:15:28;;;;;;;676.60;639.57;;;6.40;99.90;;;;;;4393695;32;20625;-65
2021/12/16 09:17:55;;;;;;;526.50;500.87;;;6.40;99.90;;;;;;4392609;32;20565;-66
2021/12/16 09:20:24;;;;;;;537.47;511.00;;;6.40;99.90;;;;;;4392578;32;20200;-65
2021/12/16 09:22:51;;;;;;;544.93;518.07;;;6.50;99.90;;;;;;4394177;32;20133;-67
2021/12/16 09:25:19;;;;;;;530.93;505.10;;;6.60;99.90;;;;;;4392231;32;20156;-64
2021/12/16 09:27:46;;;;;;;536.60;509.67;;;6.60;99.90;;;;;;4393534;32;20148;-65
2021/12/16 09:30:18;;;;;;;527.33;502.03;;;6.70;99.90;;;;;;4392293;32;20164;-65
2021/12/16 09:32:45;;;;;;;524.03;498.93;;;6.90;99.90;;;;;;4394118;32;20164;-66
2021/12/16 09:35:13;;;;;;;544.07;517.57;;;6.80;99.90;;;;;;4393411;32;20198;-65
2021/12/16 09:37:40;;;;;;;527.53;502.07;;;6.80;99.90;;;;;;4393978;32;20626;-67
2021/12/16 09:40:11;;;;;;;515.03;490.33;;;6.80;99.90;;;;;;4392172;32;20190;-68
2021/12/16 09:42:39;;;;;;;526.73;501.87;;;6.90;99.90;;;;;;4393412;32;20140;-65
2021/12/16 09:45:08;;;;;;;520.00;495.03;;;6.90;99.90;;;;;;4392125;32;20166;-64
2021/12/16 09:47:37;;;;;;;522.50;497.67;;;6.90;99.90;;;;;;4392685;32;20423;-67
2021/12/16 09:50:06;;;;;;;529.63;504.63;;;7.00;99.90;;;;;;4393204;32;20155;-66
2021/12/16 09:52:33;;;;;;;533.80;507.73;;;7.00;99.90;;;;;;4392083;32;20148;-65
2021/12/16 09:55:00;;;;;;;540.10;514.13;;;7.10;99.90;;;;;;4391955;32;20480;-67
2021/12/16 09:57:28;;;;;;;548.47;522.20;;;7.10;99.90;;;;;;4391981;32;20162;-67
2021/12/16 09:59:56;;;;;;;496.70;473.50;;;7.20;99.90;;;;;;4391651;32;20156;-64
2021/12/16 10:02:24;;;;;;;472.20;450.50;;;7.20;99.90;;;;;;4392279;32;20510;-65
2021/12/16 10:04:52;;;;;;;496.47;473.40;;;7.10;99.90;;;;;;4393538;32;20140;-67
2021/12/16 10:07:22;;;;;;;474.20;452.50;;;7.10;99.90;;;;;;4393521;32;20148;-68
2021/12/16 10:09:52;;;;;;;488.77;465.83;;;7.10;99.90;;;;;;4392197;32;20171;-67
2021/12/16 10:12:25;;;;;;;481.27;458.57;;;7.10;99.90;;;;;;4393426;32;20179;-67
2021/12/16 10:15:05;;;;;;;465.67;444.10;;;7.10;99.90;;;;;;4392567;32;20176;-65
2021/12/16 10:17:33;;;;;;;448.63;427.97;;;7.10;99.90;;;;;;4391771;32;20215;-66
2021/12/16 10:20:09;;;;;;;470.27;448.63;;;7.00;99.90;;;;;;4392085;32;20159;-67
2021/12/16 10:22:40;;;;;;;469.77;447.93;;;7.10;99.90;;;;;;4390331;32;20215;-68
2021/12/16 10:25:28;;;;;;;501.80;478.33;;;7.20;99.90;;;;;;4339474;32;1709234;-65
2021/12/16 10:27:59;;;;;;;464.00;442.70;;;7.20;99.90;;;;;;4392297;32;20488;-65
2021/12/16 10:30:35;;;;;;;478.80;456.50;;;7.20;99.90;;;;;;4391320;32;20170;-66
2021/12/16 10:33:12;;;;;;;464.10;442.60;;;7.20;99.90;;;;;;4391323;32;20310;-65
2021/12/16 10:35:41;;;;;;;465.93;444.50;;;7.30;99.90;;;;;;4391417;32;20169;-68
2021/12/16 10:38:08;;;;;;;490.30;467.47;;;7.30;99.90;;;;;;4392423;32;20152;-67
2021/12/16 10:40:42;;;;;;;471.53;449.73;;;7.30;99.90;;;;;;4392991;32;20156;-68
2021/12/16 10:43:12;;;;;;;487.97;465.10;;;7.30;99.90;;;;;;4392532;32;20141;-65
2021/12/16 10:45:42;;;;;;;489.37;466.37;;;7.40;99.90;;;;;;4392150;32;20179;-66
2021/12/16 10:48:15;;;;;;;493.50;469.77;;;7.40;99.90;;;;;;4390791;32;20176;-66
2021/12/16 10:51:05;;;;;;;487.40;464.53;;;7.40;99.90;;;;;;4391265;32;20242;-65
2021/12/16 10:54:24;;;;;;;492.33;469.47;;;7.50;99.90;;;;;;4392954;32;20152;-68
2021/12/16 10:56:59;;;;;;;478.30;456.03;;;7.60;99.90;;;;;;4391361;32;20148;-67
2021/12/16 10:59:31;;;;;;;522.03;497.00;;;7.60;99.90;;;;;;4391655;32;20203;-66
2021/12/16 11:02:05;;;;;;;515.00;490.10;;;7.60;99.90;;;;;;4391110;32;20170;-65
2021/12/16 11:04:37;;;;;;;524.10;497.87;;;7.70;99.90;;;;;;4390908;32;20182;-66
2021/12/16 11:07:10;;;;;;;518.07;493.00;;;7.80;99.90;;;;;;4391257;32;20148;-66
2021/12/16 11:09:50;;;;;;;520.80;495.57;;;7.80;99.90;;;;;;4391036;32;20152;-67
2021/12/16 11:12:42;;;;;;;531.30;505.83;;;7.90;99.90;;;;;;4392369;32;20168;-66
2021/12/16 11:15:17;;;;;;;542.83;516.00;;;8.00;99.90;;;;;;4391053;32;20488;-67
2021/12/16 11:17:48;;;;;;;544.70;517.40;;;8.00;99.90;;;;;;4390890;32;20598;-66
2021/12/16 11:20:20;;;;;;;534.50;508.60;;;8.20;99.90;;;;;;4390902;32;20152;-67
2021/12/16 11:22:50;;;;;;;537.07;510.70;;;8.20;99.90;;;;;;4383412;32;20187;-65
2021/12/16 11:25:23;;;;;;;532.37;506.00;;;8.30;99.90;;;;;;4379686;32;20227;-67
2021/12/16 11:27:54;;;;;;;523.20;497.57;;;8.30;99.90;;;;;;4376361;32;20497;-68
2021/12/16 11:30:39;;;;;;;527.60;501.60;;;8.40;99.90;;;;;;4376079;32;20528;-65
2021/12/16 11:33:22;;;;;;;524.77;499.10;;;8.40;99.90;;;;;;4375263;32;20197;-66
2021/12/16 11:35:56;;;;;;;538.73;512.23;;;8.50;99.90;;;;;;4375626;32;20234;-64
2021/12/16 11:38:38;;;;;;;526.97;501.17;;;8.60;99.90;;;;;;4375617;32;20200;-65
2021/12/16 11:41:10;;;;;;;532.50;506.43;;;8.60;99.90;;;;;;4377321;32;20142;-67
2021/12/16 11:43:48;;;;;;;528.17;501.93;;;8.70;99.90;;;;;;4375848;32;20200;-66
2021/12/16 11:46:23;;;;;;;523.67;497.90;;;8.70;99.90;;;;;;4376514;32;20152;-67
2021/12/16 11:48:53;;;;;;;519.60;494.20;;;8.80;99.90;;;;;;4377013;32;20477;-63
2021/12/16 11:51:24;;;;;;;530.93;504.47;;;8.90;99.90;;;;;;4375328;32;20257;-66
2021/12/16 11:53:54;;;;;;;530.00;503.83;;;8.90;99.90;;;;;;4376842;32;20156;-68
2021/12/16 11:56:39;;;;;;;516.33;490.60;;;9.00;99.90;;;;;;4376545;32;20507;-65
2021/12/16 11:59:07;;;;;;;510.43;485.33;;;9.00;99.90;;;;;;4377224;32;20167;-68
2021/12/16 12:01:37;;;;;;;505.17;480.37;;;9.10;99.90;;;;;;4375381;32;20553;-66
2021/12/16 12:04:07;;;;;;;503.30;478.17;;;9.20;99.90;;;;;;4375680;32;20183;-67
2021/12/16 12:06:36;;;;;;;499.13;474.60;;;9.30;99.90;;;;;;4375423;32;20439;-64
2021/12/16 12:09:08;;;;;;;508.93;483.77;;;9.30;99.90;;;;;;4375677;32;20155;-67
2021/12/16 12:11:38;;;;;;;498.57;473.83;;;9.40;99.90;;;;;;4375356;32;20171;-65
2021/12/16 12:14:08;;;;;;;499.47;475.27;;;9.40;99.90;;;;;;4375517;32;20148;-66
2021/12/16 12:16:37;;;;;;;507.27;482.00;;;9.50;99.90;;;;;;4376501;32;20170;-67
2021/12/16 12:19:11;;;;;;;504.73;479.63;;;9.60;99.90;;;;;;4375140;32;20232;-67
2021/12/16 12:21:42;;;;;;;484.33;460.60;;;9.60;99.90;;;;;;4375369;32;20151;-65
2021/12/16 12:24:19;;;;;;;486.37;462.70;;;9.70;99.90;;;;;;4375511;32;20170;-67
2021/12/16 12:26:52;;;;;;;457.07;434.70;;;9.70;99.90;;;;;;4379863;32;20160;-66
2021/12/16 12:29:22;;;;;;;473.43;450.33;;;9.80;99.90;;;;;;4378017;32;20187;-63
2021/12/16 12:31:56;;;;;;;473.50;450.73;;;10.00;99.90;;;;;;4379030;32;20624;-66
2021/12/16 12:34:23;;;;;;;454.83;432.70;;;10.10;99.90;;;;;;4379730;32;20191;-66
2021/12/16 12:36:54;;;;;;;429.70;409.17;;;10.10;99.90;;;;;;4381410;32;20194;-66
2021/12/16 12:39:26;;;;;;;434.13;413.13;;;10.10;99.90;;;;;;4391027;32;20190;-66
2021/12/16 12:41:54;;;;;;;433.80;412.47;;;10.10;99.90;;;;;;4385184;32;20527;-65
2021/12/16 12:44:22;;;;;;;444.27;423.03;;;10.10;99.90;;;;;;4392726;32;20344;-67
2021/12/16 12:46:50;;;;;;;422.40;402.00;;;10.10;99.90;;;;;;4395476;32;20215;-66
2021/12/16 13:02:27;;;;;;;390.67;372.30;;;10.20;99.90;;;;;;4336280;33;20199;-67
2021/12/16 13:04:57;;;;;;;383.40;365.63;;;10.20;99.90;;;;;;4330036;33;20215;-67
2021/12/16 13:07:33;;;;;;;386.63;368.00;;;10.20;99.90;;;;;;4331727;33;20185;-68
2021/12/16 13:10:11;;;;;;;381.80;363.30;;;10.30;99.90;;;;;;4330679;33;20191;-65
2021/12/16 13:12:47;;;;;;;375.90;358.00;;;10.40;99.90;;;;;;4330623;33;20165;-65
2021/12/16 13:15:34;;;;;;;362.80;346.23;;;10.40;99.90;;;;;;4331173;33;20258;-65
2021/12/16 13:24:23;;;;;;;373.93;356.60;;;10.40;99.90;;;;;;4312220;33;20494;-66
2021/12/16 13:27:04;;;;;;;350.73;334.23;;;10.60;99.90;;;;;;4316899;33;20539;-68
2021/12/16 13:29:35;;;;;;;332.70;316.93;;;10.60;99.90;;;;;;4346854;32;20231;-66
2021/12/16 13:32:11;;;;;;;370.37;353.13;;;10.70;99.90;;;;;;4375191;32;20160;-68
2021/12/16 13:34:52;;;;;;;357.43;341.20;;;10.70;99.90;;;;;;4375160;32;20172;-68
2021/12/16 13:37:24;;;;;;;361.07;344.20;;;10.70;99.90;;;;;;4365153;32;20222;-67
2021/12/16 13:39:59;;;;;;;357.73;341.13;;;10.70;99.90;;;;;;4358843;32;20183;-65
2021/12/16 13:42:26;;;;;;;347.90;331.73;;;10.70;99.90;;;;;;4354536;33;20206;-67
2021/12/16 13:45:01;;;;;;;335.50;319.57;;;10.80;99.90;;;;;;4359959;32;20528;-64
2021/12/16 13:47:54;;;;;;;349.63;333.73;;;10.70;99.90;;;;;;4361565;32;20161;-68
2021/12/16 14:05:58;;;;;;;363.43;346.70;;;10.20;99.90;;;;;;4375438;32;20195;-66
2021/12/16 14:08:34;;;;;;;362.53;346.13;;;10.20;99.90;;;;;;4376524;32;20490;-66
2021/12/16 14:11:32;;;;;;;385.10;366.87;;;10.10;99.90;;;;;;4385066;32;20221;-67
2021/12/16 14:14:28;;;;;;;360.13;343.53;;;10.10;99.90;;;;;;4378231;32;20227;-66
2021/12/16 14:25:21;;;;;;;377.60;359.97;;;10.00;99.90;;;;;;4392254;32;20162;-64
2021/12/16 14:42:20;;;;;;;392.53;374.30;;;9.80;99.90;;;;;;4359259;32;20161;-68
2021/12/16 14:50:36;;;;;;;382.77;364.17;;;9.60;99.90;;;;;;4315055;33;20173;-66
2021/12/16 14:53:17;;;;;;;389.00;370.13;;;9.60;99.90;;;;;;4316738;33;20697;-67
2021/12/16 14:55:46;;;;;;;401.33;382.47;;;9.50;99.90;;;;;;4316771;33;20179;-65
2021/12/16 14:58:14;;;;;;;410.77;391.40;;;9.60;99.90;;;;;;4314704;33;20211;-66
2021/12/16 15:00:46;;;;;;;402.73;383.60;;;9.50;99.90;;;;;;4316327;33;20170;-64
2021/12/16 15:03:16;;;;;;;408.47;389.27;;;9.40;99.90;;;;;;4316108;33;20157;-65
2021/12/16 15:05:47;;;;;;;394.33;375.63;;;9.40;99.90;;;;;;4314683;33;20170;-66
2021/12/16 15:08:21;;;;;;;424.63;405.03;;;9.40;99.90;;;;;;4352715;33;20177;-66
2021/12/16 15:10:50;;;;;;;420.37;400.63;;;9.30;99.90;;;;;;4358927;33;20149;-66
2021/12/16 15:13:23;;;;;;;396.80;378.50;;;9.30;99.90;;;;;;4359110;32;20180;-66
2021/12/16 15:16:08;;;;;;;398.47;380.07;;;9.20;99.90;;;;;;4359287;32;20156;-65
2021/12/16 15:38:19;;;;;;;421.33;400.90;;;8.70;99.90;;;;;;4391837;32;20180;-66
2021/12/16 15:42:44;;;;;;;424.13;404.20;;;8.60;99.90;;;;;;4392021;32;20527;-65
2021/12/16 15:43:53;;;;;;;411.60;391.87;;;8.60;99.90;;;;;;4390646;32;20539;-66
2021/12/16 15:46:20;;;;;;;418.47;398.20;;;8.50;99.90;;;;;;4390354;32;20211;-65
2021/12/16 15:48:49;;;;;;;442.40;421.57;;;8.50;99.90;;;;;;4390536;32;20183;-68
2021/12/16 15:51:17;;;;;;;429.90;409.73;;;8.40;99.90;;;;;;4392272;32;20170;-65
2021/12/16 15:53:47;;;;;;;455.23;433.57;;;8.40;99.90;;;;;;4390414;32;20236;-66
2021/12/16 15:56:16;;;;;;;434.93;413.87;;;8.30;99.90;;;;;;4391219;32;20446;-64